sensor_id;sensor_type;location;lat;lon;timestamp;temperature;humidity
19132;DHT22;9698;51.976;7.570;2023-11-21T00:00:52;9.50;99.90
19132;DHT22;9698;51.976;7.570;2023-11-21T00:03:20;9.50;99.90
19132;DHT22;9698;51.976;7.570;2023-11-21T00:05:50;9.50;99.90
19132;DHT22;9698;51.976;7.570;2023-11-21T00:08:21;9.50;99.90
19132;DHT22;9698;51.976;7.570;2023-11-21T00:10:50;9.50;99.90
19132;DHT22;9698;51.976;7.570;2023-11-21T00:13:18;9.50;99.90
19132;DHT22;9698;51.976;7.570;2023-11-21T00:15:46;9.50;99.90
19132;DHT22;9698;51.976;7.570;2023-11-21T00:18:14;9.50;99.90
19132;DHT22;9698;51.976;7.570;2023-11-21T00:20:42;9.50;99.90
19132;DHT22;9698;51.976;7.570;2023-11-21T00:23:10;9.50;99.90
19132;DHT22;9698;51.976;7.570;2023-11-21T00:25:38;9.50;99.90
19132;DHT22;9698;51.976;7.570;2023-11-21T00:28:07;9.50;99.90
19132;DHT22;9698;51.976;7.570;2023-11-21T00:30:35;9.50;99.90
19132;DHT22;9698;51.976;7.570;2023-11-21T00:33:03;10.00;99.90
19132;DHT22;9698;51.976;7.570;2023-11-21T00:35:31;9.50;99.90
19132;DHT22;9698;51.976;7.570;2023-11-21T00:37:59;9.50;99.90
19132;DHT22;9698;51.976;7.570;2023-11-21T00:40:27;9.60;99.90
19132;DHT22;9698;51.976;7.570;2023-11-21T00:42:54;9.50;99.90
19132;DHT22;9698;51.976;7.570;2023-11-21T00:45:23;9.60;99.90
19132;DHT22;9698;51.976;7.570;2023-11-21T00:47:50;9.60;99.90
19132;DHT22;9698;51.976;7.570;2023-11-21T00:50:18;9.60;99.90
19132;DHT22;9698;51.976;7.570;2023-11-21T00:52:46;9.60;99.90
19132;DHT22;9698;51.976;7.570;2023-11-21T00:55:14;9.60;99.90
19132;DHT22;9698;51.976;7.570;2023-11-21T00:57:42;9.50;99.90
19132;DHT22;9698;51.976;7.570;2023-11-21T01:00:11;9.50;99.90
19132;DHT22;9698;51.976;7.570;2023-11-21T01:02:44;9.50;99.90
19132;DHT22;9698;51.976;7.570;2023-11-21T01:05:12;9.50;99.90
19132;DHT22;9698;51.976;7.570;2023-11-21T01:07:39;9.50;99.90
19132;DHT22;9698;51.976;7.570;2023-11-21T01:10:08;9.50;99.90
19132;DHT22;9698;51.976;7.570;2023-11-21T01:12:37;9.50;99.90
19132;DHT22;9698;51.976;7.570;2023-11-21T01:15:07;9.50;99.90
19132;DHT22;9698;51.976;7.570;2023-11-21T01:17:35;9.50;99.90
19132;DHT22;9698;51.976;7.570;2023-11-21T01:20:04;9.50;99.90
19132;DHT22;9698;51.976;7.570;2023-11-21T01:22:38;9.50;99.90
19132;DHT22;9698;51.976;7.570;2023-11-21T01:25:07;9.40;99.90
19132;DHT22;9698;51.976;7.570;2023-11-21T01:27:35;9.40;99.90
19132;DHT22;9698;51.976;7.570;2023-11-21T01:30:06;9.40;99.90
19132;DHT22;9698;51.976;7.570;2023-11-21T01:32:35;9.40;99.90
19132;DHT22;9698;51.976;7.570;2023-11-21T01:35:04;9.40;99.90
19132;DHT22;9698;51.976;7.570;2023-11-21T01:37:33;9.50;99.90
19132;DHT22;9698;51.976;7.570;2023-11-21T01:40:01;9.50;99.90
19132;DHT22;9698;51.976;7.570;2023-11-21T01:42:29;9.50;99.90
19132;DHT22;9698;51.976;7.570;2023-11-21T01:44:57;9.50;99.90
19132;DHT22;9698;51.976;7.570;2023-11-21T01:47:25;9.50;99.90
19132;DHT22;9698;51.976;7.570;2023-11-21T01:49:53;9.50;99.90
19132;DHT22;9698;51.976;7.570;2023-11-21T01:52:21;9.50;99.90
19132;DHT22;9698;51.976;7.570;2023-11-21T01:54:49;9.40;99.90
19132;DHT22;9698;51.976;7.570;2023-11-21T01:57:17;9.40;99.90
19132;DHT22;9698;51.976;7.570;2023-11-21T01:59:45;9.50;99.90
19132;DHT22;9698;51.976;7.570;2023-11-21T02:02:15;9.50;99.90
19132;DHT22;9698;51.976;7.570;2023-11-21T02:04:43;9.50;99.90
19132;DHT22;9698;51.976;7.570;2023-11-21T02:07:11;9.50;99.90
19132;DHT22;9698;51.976;7.570;2023-11-21T02:09:39;9.50;99.90
19132;DHT22;9698;51.976;7.570;2023-11-21T02:12:09;9.50;99.90
19132;DHT22;9698;51.976;7.570;2023-11-21T02:14:37;9.50;99.90
19132;DHT22;9698;51.976;7.570;2023-11-21T02:17:05;9.50;99.90
19132;DHT22;9698;51.976;7.570;2023-11-21T02:19:33;9.40;99.90
19132;DHT22;9698;51.976;7.570;2023-11-21T02:22:02;9.40;99.90
19132;DHT22;9698;51.976;7.570;2023-11-21T02:24:33;9.40;99.90
19132;DHT22;9698;51.976;7.570;2023-11-21T02:27:01;9.40;99.90
19132;DHT22;9698;51.976;7.570;2023-11-21T02:29:29;9.50;99.90
19132;DHT22;9698;51.976;7.570;2023-11-21T02:31:57;9.50;99.90
19132;DHT22;9698;51.976;7.570;2023-11-21T02:34:25;9.40;99.90
19132;DHT22;9698;51.976;7.570;2023-11-21T02:36:53;9.40;99.90
19132;DHT22;9698;51.976;7.570;2023-11-21T02:39:21;9.50;99.90
19132;DHT22;9698;51.976;7.570;2023-11-21T02:41:49;9.40;99.90
19132;DHT22;9698;51.976;7.570;2023-11-21T02:44:17;9.40;99.90
19132;DHT22;9698;51.976;7.570;2023-11-21T02:46:45;9.40;99.90
19132;DHT22;9698;51.976;7.570;2023-11-21T02:49:14;9.50;99.90
19132;DHT22;9698;51.976;7.570;2023-11-21T02:51:42;9.50;99.90
19132;DHT22;9698;51.976;7.570;2023-11-21T02:54:10;9.40;99.90
19132;DHT22;9698;51.976;7.570;2023-11-21T02:56:38;9.50;99.90
19132;DHT22;9698;51.976;7.570;2023-11-21T02:59:07;9.50;99.90
19132;DHT22;9698;51.976;7.570;2023-11-21T03:01:34;9.50;99.90
19132;DHT22;9698;51.976;7.570;2023-11-21T03:04:02;9.50;99.90
19132;DHT22;9698;51.976;7.570;2023-11-21T03:06:30;9.50;99.90
19132;DHT22;9698;51.976;7.570;2023-11-21T03:08:58;9.50;99.90
19132;DHT22;9698;51.976;7.570;2023-11-21T03:11:26;9.50;99.90
19132;DHT22;9698;51.976;7.570;2023-11-21T03:13:53;9.50;99.90
19132;DHT22;9698;51.976;7.570;2023-11-21T03:16:21;9.50;99.90
19132;DHT22;9698;51.976;7.570;2023-11-21T03:18:49;9.50;99.90
19132;DHT22;9698;51.976;7.570;2023-11-21T03:21:19;9.50;99.90
19132;DHT22;9698;51.976;7.570;2023-11-21T03:23:47;9.50;99.90
19132;DHT22;9698;51.976;7.570;2023-11-21T03:26:15;9.50;99.90
19132;DHT22;9698;51.976;7.570;2023-11-21T03:28:43;9.60;99.90
19132;DHT22;9698;51.976;7.570;2023-11-21T03:31:11;9.60;99.90
19132;DHT22;9698;51.976;7.570;2023-11-21T03:33:39;9.60;99.90
19132;DHT22;9698;51.976;7.570;2023-11-21T03:36:08;9.60;99.90
19132;DHT22;9698;51.976;7.570;2023-11-21T03:38:36;9.60;99.90
19132;DHT22;9698;51.976;7.570;2023-11-21T03:41:05;9.60;99.90
19132;DHT22;9698;51.976;7.570;2023-11-21T03:43:33;10.00;99.90
19132;DHT22;9698;51.976;7.570;2023-11-21T03:46:01;9.60;99.90
19132;DHT22;9698;51.976;7.570;2023-11-21T03:48:29;9.60;99.90
19132;DHT22;9698;51.976;7.570;2023-11-21T03:50:57;9.60;99.90
19132;DHT22;9698;51.976;7.570;2023-11-21T03:53:25;9.60;99.90
19132;DHT22;9698;51.976;7.570;2023-11-21T03:55:52;9.60;99.90
19132;DHT22;9698;51.976;7.570;2023-11-21T03:58:20;9.60;99.90
19132;DHT22;9698;51.976;7.570;2023-11-21T04:00:48;9.60;99.90
19132;DHT22;9698;51.976;7.570;2023-11-21T04:03:16;9.50;99.90
19132;DHT22;9698;51.976;7.570;2023-11-21T04:05:44;9.60;99.90
19132;DHT22;9698;51.976;7.570;2023-11-21T04:08:13;9.50;99.90
19132;DHT22;9698;51.976;7.570;2023-11-21T04:10:40;9.60;99.90
19132;DHT22;9698;51.976;7.570;2023-11-21T04:13:09;9.60;99.90
19132;DHT22;9698;51.976;7.570;2023-11-21T04:15:37;9.60;99.90
19132;DHT22;9698;51.976;7.570;2023-11-21T04:18:05;9.60;99.90
19132;DHT22;9698;51.976;7.570;2023-11-21T04:20:33;9.60;99.90
19132;DHT22;9698;51.976;7.570;2023-11-21T04:23:01;9.60;99.90
19132;DHT22;9698;51.976;7.570;2023-11-21T04:25:28;9.60;99.90
19132;DHT22;9698;51.976;7.570;2023-11-21T04:27:56;9.60;99.90
19132;DHT22;9698;51.976;7.570;2023-11-21T04:30:24;9.60;99.90
19132;DHT22;9698;51.976;7.570;2023-11-21T04:32:51;9.60;99.90
19132;DHT22;9698;51.976;7.570;2023-11-21T04:35:19;9.60;99.90
19132;DHT22;9698;51.976;7.570;2023-11-21T04:37:47;9.70;99.90
19132;DHT22;9698;51.976;7.570;2023-11-21T04:40:15;9.60;99.90
19132;DHT22;9698;51.976;7.570;2023-11-21T04:42:43;9.60;99.90
19132;DHT22;9698;51.976;7.570;2023-11-21T04:45:11;9.60;99.90
19132;DHT22;9698;51.976;7.570;2023-11-21T04:47:39;9.60;99.90
19132;DHT22;9698;51.976;7.570;2023-11-21T04:50:08;9.60;99.90
19132;DHT22;9698;51.976;7.570;2023-11-21T04:52:35;9.60;99.90
19132;DHT22;9698;51.976;7.570;2023-11-21T04:55:05;9.60;99.90
19132;DHT22;9698;51.976;7.570;2023-11-21T04:57:33;9.60;99.90
19132;DHT22;9698;51.976;7.570;2023-11-21T05:00:01;9.60;99.90
19132;DHT22;9698;51.976;7.570;2023-11-21T05:02:32;9.60;99.90
19132;DHT22;9698;51.976;7.570;2023-11-21T05:05:04;9.60;99.90
19132;DHT22;9698;51.976;7.570;2023-11-21T05:07:33;9.60;99.90
19132;DHT22;9698;51.976;7.570;2023-11-21T05:10:04;9.60;99.90
19132;DHT22;9698;51.976;7.570;2023-11-21T05:12:34;9.50;99.90
19132;DHT22;9698;51.976;7.570;2023-11-21T05:15:05;9.50;99.90
19132;DHT22;9698;51.976;7.570;2023-11-21T05:17:35;9.50;99.90
19132;DHT22;9698;51.976;7.570;2023-11-21T05:20:04;9.50;99.90
19132;DHT22;9698;51.976;7.570;2023-11-21T05:22:35;9.50;99.90
19132;DHT22;9698;51.976;7.570;2023-11-21T05:25:05;9.50;99.90
19132;DHT22;9698;51.976;7.570;2023-11-21T05:27:32;9.50;99.90
19132;DHT22;9698;51.976;7.570;2023-11-21T05:30:01;9.50;99.90
19132;DHT22;9698;51.976;7.570;2023-11-21T05:32:29;9.50;99.90
19132;DHT22;9698;51.976;7.570;2023-11-21T05:34:57;9.50;99.90
19132;DHT22;9698;51.976;7.570;2023-11-21T05:37:26;9.50;99.90
19132;DHT22;9698;51.976;7.570;2023-11-21T05:39:54;9.60;99.90
19132;DHT22;9698;51.976;7.570;2023-11-21T05:42:23;9.50;99.90
19132;DHT22;9698;51.976;7.570;2023-11-21T05:44:51;9.60;99.90
19132;DHT22;9698;51.976;7.570;2023-11-21T05:47:19;9.60;99.90
19132;DHT22;9698;51.976;7.570;2023-11-21T05:49:48;9.60;99.90
19132;DHT22;9698;51.976;7.570;2023-11-21T05:52:18;9.60;99.90
19132;DHT22;9698;51.976;7.570;2023-11-21T05:54:46;9.60;99.90
19132;DHT22;9698;51.976;7.570;2023-11-21T05:57:14;9.60;99.90
19132;DHT22;9698;51.976;7.570;2023-11-21T05:59:42;9.70;99.90
19132;DHT22;9698;51.976;7.570;2023-11-21T06:02:09;9.60;99.90
19132;DHT22;9698;51.976;7.570;2023-11-21T06:04:37;9.60;99.90
19132;DHT22;9698;51.976;7.570;2023-11-21T06:07:05;9.60;99.90
19132;DHT22;9698;51.976;7.570;2023-11-21T06:09:34;9.50;99.90
19132;DHT22;9698;51.976;7.570;2023-11-21T06:12:02;9.50;99.90
19132;DHT22;9698;51.976;7.570;2023-11-21T06:14:31;9.50;99.90
19132;DHT22;9698;51.976;7.570;2023-11-21T06:17:00;9.50;99.90
19132;DHT22;9698;51.976;7.570;2023-11-21T06:19:28;9.50;99.90
19132;DHT22;9698;51.976;7.570;2023-11-21T06:21:56;9.50;99.90
19132;DHT22;9698;51.976;7.570;2023-11-21T06:24:24;9.60;99.90
19132;DHT22;9698;51.976;7.570;2023-11-21T06:26:51;9.60;99.90
19132;DHT22;9698;51.976;7.570;2023-11-21T06:29:19;9.60;99.90
19132;DHT22;9698;51.976;7.570;2023-11-21T06:31:47;9.60;99.90
19132;DHT22;9698;51.976;7.570;2023-11-21T06:34:14;9.60;99.90
19132;DHT22;9698;51.976;7.570;2023-11-21T06:36:42;9.60;99.90
19132;DHT22;9698;51.976;7.570;2023-11-21T06:39:10;9.60;99.90
19132;DHT22;9698;51.976;7.570;2023-11-21T06:41:38;9.60;99.90
19132;DHT22;9698;51.976;7.570;2023-11-21T06:44:06;9.50;99.90
19132;DHT22;9698;51.976;7.570;2023-11-21T06:46:36;9.60;99.90
19132;DHT22;9698;51.976;7.570;2023-11-21T06:49:05;9.60;99.90
19132;DHT22;9698;51.976;7.570;2023-11-21T06:51:33;9.60;99.90
19132;DHT22;9698;51.976;7.570;2023-11-21T06:54:01;9.60;99.90
19132;DHT22;9698;51.976;7.570;2023-11-21T06:56:29;9.60;99.90
19132;DHT22;9698;51.976;7.570;2023-11-21T06:58:58;9.50;99.90
19132;DHT22;9698;51.976;7.570;2023-11-21T07:01:25;9.60;99.90
19132;DHT22;9698;51.976;7.570;2023-11-21T07:03:53;9.60;99.90
19132;DHT22;9698;51.976;7.570;2023-11-21T07:06:21;9.60;99.90
19132;DHT22;9698;51.976;7.570;2023-11-21T07:08:49;9.60;99.90
19132;DHT22;9698;51.976;7.570;2023-11-21T07:11:17;9.60;99.90
19132;DHT22;9698;51.976;7.570;2023-11-21T07:13:44;9.60;99.90
19132;DHT22;9698;51.976;7.570;2023-11-21T07:16:13;9.60;99.90
19132;DHT22;9698;51.976;7.570;2023-11-21T07:18:42;9.60;99.90
19132;DHT22;9698;51.976;7.570;2023-11-21T07:21:10;9.60;99.90
19132;DHT22;9698;51.976;7.570;2023-11-21T07:23:39;9.50;99.90
19132;DHT22;9698;51.976;7.570;2023-11-21T07:26:07;9.60;99.90
19132;DHT22;9698;51.976;7.570;2023-11-21T07:28:36;9.60;99.90
19132;DHT22;9698;51.976;7.570;2023-11-21T07:31:05;9.60;99.90
19132;DHT22;9698;51.976;7.570;2023-11-21T07:33:33;9.60;99.90
19132;DHT22;9698;51.976;7.570;2023-11-21T07:36:00;9.60;99.90
19132;DHT22;9698;51.976;7.570;2023-11-21T07:38:28;9.60;99.90
19132;DHT22;9698;51.976;7.570;2023-11-21T07:40:56;9.60;99.90
19132;DHT22;9698;51.976;7.570;2023-11-21T07:43:24;9.70;99.90
19132;DHT22;9698;51.976;7.570;2023-11-21T07:45:53;11.40;99.90
19132;DHT22;9698;51.976;7.570;2023-11-21T07:48:21;11.40;99.90
19132;DHT22;9698;51.976;7.570;2023-11-21T07:50:48;11.50;99.90
19132;DHT22;9698;51.976;7.570;2023-11-21T07:53:16;11.50;99.90
19132;DHT22;9698;51.976;7.570;2023-11-21T07:55:44;11.70;99.90
19132;DHT22;9698;51.976;7.570;2023-11-21T07:58:14;11.50;99.90
19132;DHT22;9698;51.976;7.570;2023-11-21T08:00:42;11.60;99.90
19132;DHT22;9698;51.976;7.570;2023-11-21T08:03:09;11.70;99.90
19132;DHT22;9698;51.976;7.570;2023-11-21T08:05:38;11.00;99.90
19132;DHT22;9698;51.976;7.570;2023-11-21T08:08:07;11.00;99.90
19132;DHT22;9698;51.976;7.570;2023-11-21T08:10:35;10.60;99.90
19132;DHT22;9698;51.976;7.570;2023-11-21T08:13:03;10.50;99.90
19132;DHT22;9698;51.976;7.570;2023-11-21T08:15:31;10.20;99.90
19132;DHT22;9698;51.976;7.570;2023-11-21T08:17:59;10.00;99.90
19132;DHT22;9698;51.976;7.570;2023-11-21T08:20:27;10.00;99.90
19132;DHT22;9698;51.976;7.570;2023-11-21T08:22:55;9.90;99.90
19132;DHT22;9698;51.976;7.570;2023-11-21T08:25:24;9.90;99.90
19132;DHT22;9698;51.976;7.570;2023-11-21T08:27:53;9.90;99.90
19132;DHT22;9698;51.976;7.570;2023-11-21T08:30:21;9.80;99.90
19132;DHT22;9698;51.976;7.570;2023-11-21T08:32:51;9.80;99.90
19132;DHT22;9698;51.976;7.570;2023-11-21T08:35:19;9.70;99.90
19132;DHT22;9698;51.976;7.570;2023-11-21T08:37:47;9.70;99.90
19132;DHT22;9698;51.976;7.570;2023-11-21T08:40:15;9.70;99.90
19132;DHT22;9698;51.976;7.570;2023-11-21T08:42:43;9.70;99.90
19132;DHT22;9698;51.976;7.570;2023-11-21T08:45:12;9.60;99.90
19132;DHT22;9698;51.976;7.570;2023-11-21T08:47:40;9.70;99.90
19132;DHT22;9698;51.976;7.570;2023-11-21T08:50:11;9.70;99.90
19132;DHT22;9698;51.976;7.570;2023-11-21T08:52:40;9.70;99.90
19132;DHT22;9698;51.976;7.570;2023-11-21T08:55:08;9.90;99.90
19132;DHT22;9698;51.976;7.570;2023-11-21T08:57:36;9.90;99.90
19132;DHT22;9698;51.976;7.570;2023-11-21T09:00:07;9.90;99.90
19132;DHT22;9698;51.976;7.570;2023-11-21T09:02:37;9.90;99.90
19132;DHT22;9698;51.976;7.570;2023-11-21T09:05:07;9.80;99.90
19132;DHT22;9698;51.976;7.570;2023-11-21T09:07:36;9.80;99.90
19132;DHT22;9698;51.976;7.570;2023-11-21T09:10:06;9.90;99.90
19132;DHT22;9698;51.976;7.570;2023-11-21T09:12:35;9.90;99.90
19132;DHT22;9698;51.976;7.570;2023-11-21T09:15:04;9.90;99.90
19132;DHT22;9698;51.976;7.570;2023-11-21T09:17:32;10.00;99.90
19132;DHT22;9698;51.976;7.570;2023-11-21T09:20:01;9.90;99.90
19132;DHT22;9698;51.976;7.570;2023-11-21T09:22:32;9.90;99.90
19132;DHT22;9698;51.976;7.570;2023-11-21T09:25:00;9.90;99.90
19132;DHT22;9698;51.976;7.570;2023-11-21T09:27:28;9.90;99.90
19132;DHT22;9698;51.976;7.570;2023-11-21T09:29:57;10.00;99.90
19132;DHT22;9698;51.976;7.570;2023-11-21T09:32:25;10.00;99.90
19132;DHT22;9698;51.976;7.570;2023-11-21T09:34:53;9.90;99.90
19132;DHT22;9698;51.976;7.570;2023-11-21T09:37:23;10.00;99.90
19132;DHT22;9698;51.976;7.570;2023-11-21T09:39:50;10.00;99.90
19132;DHT22;9698;51.976;7.570;2023-11-21T09:42:25;10.00;99.90
19132;DHT22;9698;51.976;7.570;2023-11-21T09:45:11;9.90;99.90
19132;DHT22;9698;51.976;7.570;2023-11-21T09:47:43;9.90;99.90
19132;DHT22;9698;51.976;7.570;2023-11-21T09:50:12;9.90;99.90
19132;DHT22;9698;51.976;7.570;2023-11-21T09:52:51;9.90;99.90
19132;DHT22;9698;51.976;7.570;2023-11-21T09:55:22;9.90;99.90
19132;DHT22;9698;51.976;7.570;2023-11-21T09:57:53;9.90;99.90
19132;DHT22;9698;51.976;7.570;2023-11-21T10:00:22;9.90;99.90
19132;DHT22;9698;51.976;7.570;2023-11-21T10:02:51;9.90;99.90
19132;DHT22;9698;51.976;7.570;2023-11-21T10:05:20;9.90;99.90
19132;DHT22;9698;51.976;7.570;2023-11-21T10:07:51;9.90;99.90
19132;DHT22;9698;51.976;7.570;2023-11-21T10:10:20;9.90;99.90
19132;DHT22;9698;51.976;7.570;2023-11-21T10:12:50;9.90;99.90
19132;DHT22;9698;51.976;7.570;2023-11-21T10:15:23;9.90;99.90
19132;DHT22;9698;51.976;7.570;2023-11-21T10:17:53;10.30;99.90
19132;DHT22;9698;51.976;7.570;2023-11-21T10:20:23;10.00;99.90
19132;DHT22;9698;51.976;7.570;2023-11-21T10:22:52;10.00;99.90
19132;DHT22;9698;51.976;7.570;2023-11-21T10:25:20;10.00;99.90
19132;DHT22;9698;51.976;7.570;2023-11-21T10:27:49;10.00;99.90
19132;DHT22;9698;51.976;7.570;2023-11-21T10:30:19;10.00;99.90
19132;DHT22;9698;51.976;7.570;2023-11-21T10:32:47;10.00;99.90
19132;DHT22;9698;51.976;7.570;2023-11-21T10:35:15;10.00;99.90
19132;DHT22;9698;51.976;7.570;2023-11-21T10:37:43;10.00;99.90
19132;DHT22;9698;51.976;7.570;2023-11-21T10:40:11;10.00;99.90
19132;DHT22;9698;51.976;7.570;2023-11-21T10:42:39;10.00;99.90
19132;DHT22;9698;51.976;7.570;2023-11-21T10:45:09;10.00;99.90
19132;DHT22;9698;51.976;7.570;2023-11-21T10:47:41;9.90;99.90
19132;DHT22;9698;51.976;7.570;2023-11-21T10:50:09;9.90;99.90
19132;DHT22;9698;51.976;7.570;2023-11-21T10:52:39;9.90;99.90
19132;DHT22;9698;51.976;7.570;2023-11-21T10:55:17;9.90;99.90
19132;DHT22;9698;51.976;7.570;2023-11-21T10:57:48;9.90;99.90
19132;DHT22;9698;51.976;7.570;2023-11-21T11:00:18;9.90;99.90
19132;DHT22;9698;51.976;7.570;2023-11-21T11:02:50;9.90;99.90
19132;DHT22;9698;51.976;7.570;2023-11-21T11:05:20;9.90;99.90
19132;DHT22;9698;51.976;7.570;2023-11-21T11:07:51;9.90;99.90
19132;DHT22;9698;51.976;7.570;2023-11-21T11:10:22;10.00;99.90
19132;DHT22;9698;51.976;7.570;2023-11-21T11:12:54;9.90;99.90
19132;DHT22;9698;51.976;7.570;2023-11-21T11:15:23;9.90;99.90
19132;DHT22;9698;51.976;7.570;2023-11-21T11:17:51;10.00;99.90
19132;DHT22;9698;51.976;7.570;2023-11-21T11:20:19;9.90;99.90
19132;DHT22;9698;51.976;7.570;2023-11-21T11:22:59;9.90;99.90
19132;DHT22;9698;51.976;7.570;2023-11-21T11:25:42;9.90;99.90
19132;DHT22;9698;51.976;7.570;2023-11-21T11:28:17;9.90;99.90
19132;DHT22;9698;51.976;7.570;2023-11-21T11:30:58;9.90;99.90
19132;DHT22;9698;51.976;7.570;2023-11-21T11:33:48;9.80;99.90
19132;DHT22;9698;51.976;7.570;2023-11-21T11:36:25;9.80;99.90
19132;DHT22;9698;51.976;7.570;2023-11-21T11:38:55;9.80;99.90
19132;DHT22;9698;51.976;7.570;2023-11-21T11:41:27;9.80;99.90
19132;DHT22;9698;51.976;7.570;2023-11-21T11:43:57;9.80;99.90
19132;DHT22;9698;51.976;7.570;2023-11-21T11:46:41;9.80;99.90
19132;DHT22;9698;51.976;7.570;2023-11-21T11:49:09;9.80;99.90
19132;DHT22;9698;51.976;7.570;2023-11-21T11:51:40;9.80;99.90
19132;DHT22;9698;51.976;7.570;2023-11-21T11:54:08;9.70;99.90
19132;DHT22;9698;51.976;7.570;2023-11-21T11:56:36;9.70;99.90
19132;DHT22;9698;51.976;7.570;2023-11-21T11:59:05;9.70;99.90
19132;DHT22;9698;51.976;7.570;2023-11-21T12:01:36;9.80;99.90
19132;DHT22;9698;51.976;7.570;2023-11-21T12:04:25;9.80;99.90
19132;DHT22;9698;51.976;7.570;2023-11-21T12:07:02;9.80;99.90
19132;DHT22;9698;51.976;7.570;2023-11-21T12:09:31;9.80;99.90
19132;DHT22;9698;51.976;7.570;2023-11-21T12:12:00;9.80;99.90
19132;DHT22;9698;51.976;7.570;2023-11-21T12:14:28;9.70;99.90
19132;DHT22;9698;51.976;7.570;2023-11-21T12:16:56;9.70;99.90
19132;DHT22;9698;51.976;7.570;2023-11-21T12:19:24;9.60;99.90
19132;DHT22;9698;51.976;7.570;2023-11-21T12:21:53;9.60;99.90
19132;DHT22;9698;51.976;7.570;2023-11-21T12:24:23;9.60;99.90
19132;DHT22;9698;51.976;7.570;2023-11-21T12:26:51;9.60;99.90
19132;DHT22;9698;51.976;7.570;2023-11-21T12:29:18;9.60;99.90
19132;DHT22;9698;51.976;7.570;2023-11-21T12:31:49;9.70;99.90
19132;DHT22;9698;51.976;7.570;2023-11-21T12:34:17;9.70;99.90
19132;DHT22;9698;51.976;7.570;2023-11-21T12:36:47;9.70;99.90
19132;DHT22;9698;51.976;7.570;2023-11-21T12:39:16;9.70;99.90
19132;DHT22;9698;51.976;7.570;2023-11-21T12:41:44;9.70;99.90
19132;DHT22;9698;51.976;7.570;2023-11-21T12:44:13;9.60;99.90
19132;DHT22;9698;51.976;7.570;2023-11-21T12:46:43;9.60;99.90
19132;DHT22;9698;51.976;7.570;2023-11-21T12:49:12;9.60;99.90
19132;DHT22;9698;51.976;7.570;2023-11-21T12:54:13;9.60;99.90
19132;DHT22;9698;51.976;7.570;2023-11-21T12:56:45;9.50;99.90
19132;DHT22;9698;51.976;7.570;2023-11-21T12:59:14;9.60;99.90
19132;DHT22;9698;51.976;7.570;2023-11-21T13:01:44;9.50;99.90
19132;DHT22;9698;51.976;7.570;2023-11-21T13:04:13;9.50;99.90
19132;DHT22;9698;51.976;7.570;2023-11-21T13:06:41;9.50;99.90
19132;DHT22;9698;51.976;7.570;2023-11-21T13:09:09;9.70;99.90
19132;DHT22;9698;51.976;7.570;2023-11-21T13:11:38;9.50;99.90
19132;DHT22;9698;51.976;7.570;2023-11-21T13:14:08;9.50;99.90
19132;DHT22;9698;51.976;7.570;2023-11-21T13:16:38;9.50;99.90
19132;DHT22;9698;51.976;7.570;2023-11-21T13:19:09;9.50;99.90
19132;DHT22;9698;51.976;7.570;2023-11-21T13:21:38;9.40;99.90
19132;DHT22;9698;51.976;7.570;2023-11-21T13:24:08;9.50;99.90
19132;DHT22;9698;51.976;7.570;2023-11-21T13:26:38;9.40;99.90
19132;DHT22;9698;51.976;7.570;2023-11-21T13:29:06;9.40;99.90
19132;DHT22;9698;51.976;7.570;2023-11-21T13:31:34;9.40;99.90
19132;DHT22;9698;51.976;7.570;2023-11-21T13:34:04;9.30;99.90
19132;DHT22;9698;51.976;7.570;2023-11-21T13:36:34;9.20;99.90
19132;DHT22;9698;51.976;7.570;2023-11-21T13:39:02;9.30;99.90
19132;DHT22;9698;51.976;7.570;2023-11-21T13:41:32;9.30;99.90
19132;DHT22;9698;51.976;7.570;2023-11-21T13:44:00;9.30;99.90
19132;DHT22;9698;51.976;7.570;2023-11-21T13:46:41;9.20;99.90
19132;DHT22;9698;51.976;7.570;2023-11-21T13:49:09;9.20;99.90
19132;DHT22;9698;51.976;7.570;2023-11-21T13:51:37;9.20;99.90
19132;DHT22;9698;51.976;7.570;2023-11-21T13:54:10;9.10;99.90
19132;DHT22;9698;51.976;7.570;2023-11-21T13:56:39;9.10;99.90
19132;DHT22;9698;51.976;7.570;2023-11-21T13:59:08;9.00;99.90
19132;DHT22;9698;51.976;7.570;2023-11-21T14:01:48;9.00;99.90
19132;DHT22;9698;51.976;7.570;2023-11-21T14:04:23;8.90;99.90
19132;DHT22;9698;51.976;7.570;2023-11-21T14:07:17;8.90;99.90
19132;DHT22;9698;51.976;7.570;2023-11-21T14:09:53;8.90;99.90
19132;DHT22;9698;51.976;7.570;2023-11-21T14:12:21;8.90;99.90
19132;DHT22;9698;51.976;7.570;2023-11-21T14:14:49;8.90;99.90
19132;DHT22;9698;51.976;7.570;2023-11-21T14:17:17;8.90;99.90
19132;DHT22;9698;51.976;7.570;2023-11-21T14:19:45;8.90;99.90
19132;DHT22;9698;51.976;7.570;2023-11-21T14:22:14;10.70;99.90
19132;DHT22;9698;51.976;7.570;2023-11-21T14:24:42;11.50;99.90
19132;DHT22;9698;51.976;7.570;2023-11-21T14:27:14;11.70;99.90
19132;DHT22;9698;51.976;7.570;2023-11-21T14:29:44;11.70;99.90
19132;DHT22;9698;51.976;7.570;2023-11-21T14:32:13;12.10;99.90
19132;DHT22;9698;51.976;7.570;2023-11-21T14:34:41;12.30;99.90
19132;DHT22;9698;51.976;7.570;2023-11-21T14:37:12;12.20;99.90
19132;DHT22;9698;51.976;7.570;2023-11-21T14:39:41;12.20;99.90
19132;DHT22;9698;51.976;7.570;2023-11-21T14:42:12;11.70;99.90
19132;DHT22;9698;51.976;7.570;2023-11-21T14:44:42;11.20;99.90
19132;DHT22;9698;51.976;7.570;2023-11-21T14:47:10;11.10;99.90
19132;DHT22;9698;51.976;7.570;2023-11-21T14:49:42;10.30;99.90
19132;DHT22;9698;51.976;7.570;2023-11-21T14:52:20;10.00;99.90
19132;DHT22;9698;51.976;7.570;2023-11-21T14:55:01;9.90;99.90
19132;DHT22;9698;51.976;7.570;2023-11-21T14:57:48;9.70;99.90
19132;DHT22;9698;51.976;7.570;2023-11-21T15:00:18;9.70;99.90
19132;DHT22;9698;51.976;7.570;2023-11-21T15:03:05;9.50;99.90
19132;DHT22;9698;51.976;7.570;2023-11-21T15:05:36;9.50;99.90
19132;DHT22;9698;51.976;7.570;2023-11-21T15:08:06;9.40;99.90
19132;DHT22;9698;51.976;7.570;2023-11-21T15:10:47;9.30;99.90
19132;DHT22;9698;51.976;7.570;2023-11-21T15:15:44;9.20;99.90
19132;DHT22;9698;51.976;7.570;2023-11-21T15:18:12;9.20;99.90
19132;DHT22;9698;51.976;7.570;2023-11-21T15:20:41;9.10;99.90
19132;DHT22;9698;51.976;7.570;2023-11-21T15:23:09;9.00;99.90
19132;DHT22;9698;51.976;7.570;2023-11-21T15:25:37;9.00;99.90
19132;DHT22;9698;51.976;7.570;2023-11-21T15:28:05;8.80;99.90
19132;DHT22;9698;51.976;7.570;2023-11-21T15:30:33;8.90;99.90
19132;DHT22;9698;51.976;7.570;2023-11-21T15:33:02;8.80;99.90
19132;DHT22;9698;51.976;7.570;2023-11-21T15:35:31;8.80;99.90
19132;DHT22;9698;51.976;7.570;2023-11-21T15:38:00;8.80;99.90
19132;DHT22;9698;51.976;7.570;2023-11-21T15:40:28;8.80;99.90
19132;DHT22;9698;51.976;7.570;2023-11-21T15:42:56;8.80;99.90
19132;DHT22;9698;51.976;7.570;2023-11-21T15:45:24;8.70;99.90
19132;DHT22;9698;51.976;7.570;2023-11-21T15:47:53;8.70;99.90
19132;DHT22;9698;51.976;7.570;2023-11-21T15:50:20;8.70;99.90
19132;DHT22;9698;51.976;7.570;2023-11-21T15:52:49;8.70;99.90
19132;DHT22;9698;51.976;7.570;2023-11-21T15:55:25;8.70;99.90
19132;DHT22;9698;51.976;7.570;2023-11-21T15:57:54;8.70;99.90
19132;DHT22;9698;51.976;7.570;2023-11-21T16:00:22;8.60;99.90
19132;DHT22;9698;51.976;7.570;2023-11-21T16:02:51;8.70;99.90
19132;DHT22;9698;51.976;7.570;2023-11-21T16:05:20;8.70;99.90
19132;DHT22;9698;51.976;7.570;2023-11-21T16:07:48;8.70;99.90
19132;DHT22;9698;51.976;7.570;2023-11-21T16:10:17;8.70;99.90
19132;DHT22;9698;51.976;7.570;2023-11-21T16:12:46;8.70;99.90
19132;DHT22;9698;51.976;7.570;2023-11-21T16:15:14;8.70;99.90
19132;DHT22;9698;51.976;7.570;2023-11-21T16:17:45;8.70;99.90